sensor_id;sensor_type;location;lat;lon;timestamp;pressure;altitude;pressure_sealevel;temperature;humidity
62926;BME280;55732;52.248;-0.844;2023-03-03T00:02:03;101995.83;;;4.50;76.88
62926;BME280;55732;52.248;-0.844;2023-03-03T00:04:29;102001.42;;;4.50;76.74
62926;BME280;55732;52.248;-0.844;2023-03-03T00:06:54;102007.02;;;4.50;76.72
62926;BME280;55732;52.248;-0.844;2023-03-03T00:09:20;102000.04;;;4.50;76.49
62926;BME280;55732;52.248;-0.844;2023-03-03T00:11:47;102006.53;;;4.51;76.64
62926;BME280;55732;52.248;-0.844;2023-03-03T00:14:23;102007.08;;;4.51;76.54
62926;BME280;55732;52.248;-0.844;2023-03-03T00:16:53;102007.80;;;4.52;76.46
62926;BME280;55732;52.248;-0.844;2023-03-03T00:19:20;102008.09;;;4.51;76.41
62926;BME280;55732;52.248;-0.844;2023-03-03T00:21:47;102013.62;;;4.49;76.54
62926;BME280;55732;52.248;-0.844;2023-03-03T00:27:15;102014.69;;;4.46;76.60
62926;BME280;55732;52.248;-0.844;2023-03-03T00:29:36;102007.68;;;4.45;76.62
62926;BME280;55732;52.248;-0.844;2023-03-03T00:32:26;102010.48;;;4.45;76.72
62926;BME280;55732;52.248;-0.844;2023-03-03T00:35:01;102009.30;;;4.46;76.64
62926;BME280;55732;52.248;-0.844;2023-03-03T00:37:41;102008.98;;;4.47;76.62
62926;BME280;55732;52.248;-0.844;2023-03-03T00:42:53;102004.41;;;4.46;76.57
62926;BME280;55732;52.248;-0.844;2023-03-03T00:51:11;102003.23;;;4.47;76.62
62926;BME280;55732;52.248;-0.844;2023-03-03T00:53:43;102001.46;;;4.47;76.62
62926;BME280;55732;52.248;-0.844;2023-03-03T00:56:08;101999.40;;;4.47;76.58
62926;BME280;55732;52.248;-0.844;2023-03-03T00:58:34;101999.75;;;4.47;76.56
62926;BME280;55732;52.248;-0.844;2023-03-03T01:00:59;101999.08;;;4.48;76.59
62926;BME280;55732;52.248;-0.844;2023-03-03T01:03:26;102000.32;;;4.48;76.42
62926;BME280;55732;52.248;-0.844;2023-03-03T01:05:52;102003.22;;;4.47;76.46
62926;BME280;55732;52.248;-0.844;2023-03-03T01:08:18;102002.48;;;4.46;76.50
62926;BME280;55732;52.248;-0.844;2023-03-03T01:11:12;102006.86;;;4.46;76.48
62926;BME280;55732;52.248;-0.844;2023-03-03T01:13:41;102000.80;;;4.47;76.52
62926;BME280;55732;52.248;-0.844;2023-03-03T01:16:07;101998.27;;;4.49;76.50
62926;BME280;55732;52.248;-0.844;2023-03-03T01:18:33;102001.71;;;4.49;76.35
62926;BME280;55732;52.248;-0.844;2023-03-03T01:20:59;102003.43;;;4.44;76.22
62926;BME280;55732;52.248;-0.844;2023-03-03T01:23:26;102002.56;;;4.40;76.40
62926;BME280;55732;52.248;-0.844;2023-03-03T01:25:52;102001.83;;;4.40;76.49
62926;BME280;55732;52.248;-0.844;2023-03-03T01:28:17;102008.09;;;4.39;76.38
62926;BME280;55732;52.248;-0.844;2023-03-03T01:30:43;102005.08;;;4.38;76.18
62926;BME280;55732;52.248;-0.844;2023-03-03T01:33:08;102004.90;;;4.39;76.18
62926;BME280;55732;52.248;-0.844;2023-03-03T01:35:34;102007.64;;;4.37;76.18
62926;BME280;55732;52.248;-0.844;2023-03-03T01:38:00;102003.90;;;4.35;76.16
62926;BME280;55732;52.248;-0.844;2023-03-03T01:40:28;102006.33;;;4.34;76.22
62926;BME280;55732;52.248;-0.844;2023-03-03T01:42:54;102004.44;;;4.35;76.19
62926;BME280;55732;52.248;-0.844;2023-03-03T01:45:25;102000.42;;;4.35;76.02
62926;BME280;55732;52.248;-0.844;2023-03-03T01:47:55;102003.39;;;4.35;76.04
62926;BME280;55732;52.248;-0.844;2023-03-03T01:52:57;102004.73;;;4.34;75.78
62926;BME280;55732;52.248;-0.844;2023-03-03T01:55:29;102005.79;;;4.34;75.86
62926;BME280;55732;52.248;-0.844;2023-03-03T01:57:59;102006.14;;;4.34;75.75
62926;BME280;55732;52.248;-0.844;2023-03-03T02:00:28;102007.38;;;4.34;75.66
62926;BME280;55732;52.248;-0.844;2023-03-03T02:02:54;102013.02;;;4.36;75.63
62926;BME280;55732;52.248;-0.844;2023-03-03T02:05:20;102012.71;;;4.37;75.62
62926;BME280;55732;52.248;-0.844;2023-03-03T02:07:45;102017.48;;;4.39;75.62
62926;BME280;55732;52.248;-0.844;2023-03-03T02:10:16;102020.17;;;4.41;75.75
62926;BME280;55732;52.248;-0.844;2023-03-03T02:17:53;102017.75;;;4.44;75.70
62926;BME280;55732;52.248;-0.844;2023-03-03T02:23:39;102023.71;;;4.41;75.79
62926;BME280;55732;52.248;-0.844;2023-03-03T02:26:14;102020.66;;;4.40;75.68
62926;BME280;55732;52.248;-0.844;2023-03-03T02:28:41;102022.73;;;4.39;75.84
62926;BME280;55732;52.248;-0.844;2023-03-03T02:31:10;102019.33;;;4.41;76.04
62926;BME280;55732;52.248;-0.844;2023-03-03T02:33:41;102020.96;;;4.42;76.09
62926;BME280;55732;52.248;-0.844;2023-03-03T02:36:18;102016.97;;;4.43;76.00
62926;BME280;55732;52.248;-0.844;2023-03-03T02:44:00;102019.30;;;4.40;76.14
62926;BME280;55732;52.248;-0.844;2023-03-03T02:46:33;102018.71;;;4.39;76.17
62926;BME280;55732;52.248;-0.844;2023-03-03T02:48:58;102018.30;;;4.38;76.23
62926;BME280;55732;52.248;-0.844;2023-03-03T02:51:24;102018.54;;;4.39;76.22
62926;BME280;55732;52.248;-0.844;2023-03-03T02:53:50;102017.08;;;4.41;76.22
62926;BME280;55732;52.248;-0.844;2023-03-03T02:56:16;102019.55;;;4.42;76.25
62926;BME280;55732;52.248;-0.844;2023-03-03T02:58:41;102020.05;;;4.41;76.40
62926;BME280;55732;52.248;-0.844;2023-03-03T03:01:06;102020.02;;;4.41;76.24
62926;BME280;55732;52.248;-0.844;2023-03-03T03:03:32;102016.24;;;4.39;76.22
62926;BME280;55732;52.248;-0.844;2023-03-03T03:05:57;102017.02;;;4.36;76.36
62926;BME280;55732;52.248;-0.844;2023-03-03T03:08:23;102015.04;;;4.34;76.17
62926;BME280;55732;52.248;-0.844;2023-03-03T03:10:48;102017.39;;;4.37;76.38
62926;BME280;55732;52.248;-0.844;2023-03-03T03:13:14;102015.20;;;4.39;76.33
62926;BME280;55732;52.248;-0.844;2023-03-03T03:15:39;102017.15;;;4.39;76.20
62926;BME280;55732;52.248;-0.844;2023-03-03T03:18:05;102017.17;;;4.40;76.17
62926;BME280;55732;52.248;-0.844;2023-03-03T03:20:35;102016.35;;;4.41;76.13
62926;BME280;55732;52.248;-0.844;2023-03-03T03:23:02;102018.46;;;4.41;75.89
62926;BME280;55732;52.248;-0.844;2023-03-03T03:25:27;102018.77;;;4.40;75.99
62926;BME280;55732;52.248;-0.844;2023-03-03T03:27:53;102018.28;;;4.41;76.12
62926;BME280;55732;52.248;-0.844;2023-03-03T03:30:18;102025.92;;;4.40;75.93
62926;BME280;55732;52.248;-0.844;2023-03-03T03:32:45;102021.30;;;4.39;75.89
62926;BME280;55732;52.248;-0.844;2023-03-03T03:35:11;102022.84;;;4.38;75.97
62926;BME280;55732;52.248;-0.844;2023-03-03T03:37:38;102017.88;;;4.40;76.15
62926;BME280;55732;52.248;-0.844;2023-03-03T03:40:04;102014.35;;;4.39;76.11
62926;BME280;55732;52.248;-0.844;2023-03-03T03:42:30;102018.06;;;4.44;76.07
62926;BME280;55732;52.248;-0.844;2023-03-03T03:44:56;102018.17;;;4.42;76.09
62926;BME280;55732;52.248;-0.844;2023-03-03T03:47:21;102020.60;;;4.42;75.85
62926;BME280;55732;52.248;-0.844;2023-03-03T03:49:47;102015.70;;;4.42;75.69
62926;BME280;55732;52.248;-0.844;2023-03-03T03:52:12;102017.39;;;4.40;75.87
62926;BME280;55732;52.248;-0.844;2023-03-03T03:54:38;102014.31;;;4.38;75.96
62926;BME280;55732;52.248;-0.844;2023-03-03T03:57:03;102012.52;;;4.37;75.94
62926;BME280;55732;52.248;-0.844;2023-03-03T03:59:29;102007.83;;;4.38;76.14
62926;BME280;55732;52.248;-0.844;2023-03-03T04:01:54;102009.47;;;4.39;76.08
62926;BME280;55732;52.248;-0.844;2023-03-03T04:04:20;102008.76;;;4.39;76.13
62926;BME280;55732;52.248;-0.844;2023-03-03T04:06:45;102008.38;;;4.38;76.19
62926;BME280;55732;52.248;-0.844;2023-03-03T04:09:11;102007.46;;;4.37;76.14
62926;BME280;55732;52.248;-0.844;2023-03-03T04:11:36;102007.98;;;4.37;76.21
62926;BME280;55732;52.248;-0.844;2023-03-03T04:14:02;102005.23;;;4.38;76.23
62926;BME280;55732;52.248;-0.844;2023-03-03T04:16:27;102002.26;;;4.38;76.14
62926;BME280;55732;52.248;-0.844;2023-03-03T04:18:52;102007.65;;;4.37;76.16
62926;BME280;55732;52.248;-0.844;2023-03-03T04:21:18;102008.25;;;4.39;76.31
62926;BME280;55732;52.248;-0.844;2023-03-03T04:23:43;102002.27;;;4.42;76.17
62926;BME280;55732;52.248;-0.844;2023-03-03T04:26:09;102003.42;;;4.44;76.30
62926;BME280;55732;52.248;-0.844;2023-03-03T04:28:34;102003.28;;;4.44;76.27
62926;BME280;55732;52.248;-0.844;2023-03-03T04:31:00;102005.69;;;4.44;76.41
62926;BME280;55732;52.248;-0.844;2023-03-03T04:33:25;102006.81;;;4.42;76.47
62926;BME280;55732;52.248;-0.844;2023-03-03T04:35:51;102010.11;;;4.41;76.65
62926;BME280;55732;52.248;-0.844;2023-03-03T04:38:16;102013.52;;;4.40;76.50
62926;BME280;55732;52.248;-0.844;2023-03-03T04:40:42;102015.16;;;4.38;76.60
62926;BME280;55732;52.248;-0.844;2023-03-03T04:43:08;102016.77;;;4.34;76.76
62926;BME280;55732;52.248;-0.844;2023-03-03T04:45:35;102020.43;;;4.34;76.79
62926;BME280;55732;52.248;-0.844;2023-03-03T04:48:00;102021.91;;;4.36;76.72
62926;BME280;55732;52.248;-0.844;2023-03-03T04:50:26;102018.52;;;4.39;76.88
62926;BME280;55732;52.248;-0.844;2023-03-03T04:52:51;102020.70;;;4.40;76.83
62926;BME280;55732;52.248;-0.844;2023-03-03T04:55:17;102022.55;;;4.42;76.97
62926;BME280;55732;52.248;-0.844;2023-03-03T04:57:42;102019.66;;;4.44;76.82
62926;BME280;55732;52.248;-0.844;2023-03-03T05:00:10;102019.14;;;4.44;76.81
62926;BME280;55732;52.248;-0.844;2023-03-03T05:02:40;102019.55;;;4.42;76.89
62926;BME280;55732;52.248;-0.844;2023-03-03T05:05:06;102016.27;;;4.39;76.99
62926;BME280;55732;52.248;-0.844;2023-03-03T05:07:33;102021.80;;;4.38;76.89
62926;BME280;55732;52.248;-0.844;2023-03-03T05:09:59;102020.98;;;4.34;76.87
62926;BME280;55732;52.248;-0.844;2023-03-03T05:12:25;102023.23;;;4.30;76.86
62926;BME280;55732;52.248;-0.844;2023-03-03T05:14:51;102026.04;;;4.31;77.02
62926;BME280;55732;52.248;-0.844;2023-03-03T05:17:16;102027.17;;;4.33;77.01
62926;BME280;55732;52.248;-0.844;2023-03-03T05:19:41;102023.64;;;4.35;77.17
62926;BME280;55732;52.248;-0.844;2023-03-03T05:22:07;102032.23;;;4.38;77.23
62926;BME280;55732;52.248;-0.844;2023-03-03T05:24:32;102028.93;;;4.41;77.13
62926;BME280;55732;52.248;-0.844;2023-03-03T05:26:57;102034.88;;;4.42;76.93
62926;BME280;55732;52.248;-0.844;2023-03-03T05:29:23;102027.50;;;4.40;76.96
62926;BME280;55732;52.248;-0.844;2023-03-03T05:31:48;102028.92;;;4.37;76.79
62926;BME280;55732;52.248;-0.844;2023-03-03T05:34:14;102030.42;;;4.35;76.98
62926;BME280;55732;52.248;-0.844;2023-03-03T05:36:40;102031.90;;;4.33;77.05
62926;BME280;55732;52.248;-0.844;2023-03-03T05:39:05;102036.98;;;4.30;76.99
62926;BME280;55732;52.248;-0.844;2023-03-03T05:41:31;102033.37;;;4.31;77.05
62926;BME280;55732;52.248;-0.844;2023-03-03T05:43:56;102033.48;;;4.30;77.03
62926;BME280;55732;52.248;-0.844;2023-03-03T05:46:22;102031.66;;;4.28;76.99
62926;BME280;55732;52.248;-0.844;2023-03-03T05:48:47;102037.91;;;4.28;77.03
62926;BME280;55732;52.248;-0.844;2023-03-03T05:51:12;102031.73;;;4.27;76.73
62926;BME280;55732;52.248;-0.844;2023-03-03T05:53:38;102030.86;;;4.26;76.75
62926;BME280;55732;52.248;-0.844;2023-03-03T05:56:04;102028.54;;;4.25;76.78
62926;BME280;55732;52.248;-0.844;2023-03-03T05:58:29;102033.89;;;4.24;76.73
62926;BME280;55732;52.248;-0.844;2023-03-03T06:00:55;102034.14;;;4.22;76.52
62926;BME280;55732;52.248;-0.844;2023-03-03T06:03:20;102037.87;;;4.20;76.43
62926;BME280;55732;52.248;-0.844;2023-03-03T06:05:46;102038.02;;;4.19;76.48
62926;BME280;55732;52.248;-0.844;2023-03-03T06:08:11;102037.45;;;4.18;76.32
62926;BME280;55732;52.248;-0.844;2023-03-03T06:10:37;102040.16;;;4.17;76.37
62926;BME280;55732;52.248;-0.844;2023-03-03T06:13:02;102041.83;;;4.15;76.43
62926;BME280;55732;52.248;-0.844;2023-03-03T06:15:28;102042.67;;;4.15;76.34
62926;BME280;55732;52.248;-0.844;2023-03-03T06:17:53;102042.48;;;4.15;76.34
62926;BME280;55732;52.248;-0.844;2023-03-03T06:20:19;102040.57;;;4.15;76.23
62926;BME280;55732;52.248;-0.844;2023-03-03T06:22:44;102039.98;;;4.13;76.49
62926;BME280;55732;52.248;-0.844;2023-03-03T06:25:09;102039.66;;;4.14;76.44
62926;BME280;55732;52.248;-0.844;2023-03-03T06:27:35;102041.31;;;4.16;76.57
62926;BME280;55732;52.248;-0.844;2023-03-03T06:30:00;102041.23;;;4.17;76.60
62926;BME280;55732;52.248;-0.844;2023-03-03T06:32:26;102047.44;;;4.19;76.60
62926;BME280;55732;52.248;-0.844;2023-03-03T06:34:51;102050.59;;;4.20;76.46
62926;BME280;55732;52.248;-0.844;2023-03-03T06:37:17;102053.02;;;4.19;76.56
62926;BME280;55732;52.248;-0.844;2023-03-03T06:39:42;102051.39;;;4.18;76.85
62926;BME280;55732;52.248;-0.844;2023-03-03T06:42:08;102051.85;;;4.17;76.91
62926;BME280;55732;52.248;-0.844;2023-03-03T06:44:34;102050.19;;;4.18;76.87
62926;BME280;55732;52.248;-0.844;2023-03-03T06:47:00;102051.70;;;4.21;77.06
62926;BME280;55732;52.248;-0.844;2023-03-03T06:49:25;102059.66;;;4.23;77.22
62926;BME280;55732;52.248;-0.844;2023-03-03T06:51:51;102064.50;;;4.22;77.55
62926;BME280;55732;52.248;-0.844;2023-03-03T06:54:25;102058.47;;;4.17;78.03
62926;BME280;55732;52.248;-0.844;2023-03-03T06:56:56;102068.91;;;4.17;78.51
62926;BME280;55732;52.248;-0.844;2023-03-03T06:59:22;102067.01;;;4.13;79.14
62926;BME280;55732;52.248;-0.844;2023-03-03T07:01:49;102070.41;;;4.11;79.46
62926;BME280;55732;52.248;-0.844;2023-03-03T07:06:44;102067.95;;;4.05;80.25
62926;BME280;55732;52.248;-0.844;2023-03-03T07:09:22;102076.41;;;4.03;80.17
62926;BME280;55732;52.248;-0.844;2023-03-03T07:11:49;102076.66;;;4.00;80.67
62926;BME280;55732;52.248;-0.844;2023-03-03T07:14:17;102076.35;;;3.97;80.87
62926;BME280;55732;52.248;-0.844;2023-03-03T07:16:43;102081.13;;;3.95;80.99
62926;BME280;55732;52.248;-0.844;2023-03-03T07:19:20;102080.78;;;3.92;81.25
62926;BME280;55732;52.248;-0.844;2023-03-03T07:21:49;102085.60;;;3.94;81.47
62926;BME280;55732;52.248;-0.844;2023-03-03T07:24:28;102089.83;;;3.99;81.49
62926;BME280;55732;52.248;-0.844;2023-03-03T07:26:59;102088.95;;;4.02;81.60
62926;BME280;55732;52.248;-0.844;2023-03-03T07:29:28;102088.91;;;4.08;81.61
62926;BME280;55732;52.248;-0.844;2023-03-03T07:31:56;102090.34;;;4.13;81.81
62926;BME280;55732;52.248;-0.844;2023-03-03T07:34:29;102091.10;;;4.21;81.92
62926;BME280;55732;52.248;-0.844;2023-03-03T07:37:10;102090.61;;;4.29;81.68
62926;BME280;55732;52.248;-0.844;2023-03-03T07:39:39;102090.55;;;4.35;81.84
62926;BME280;55732;52.248;-0.844;2023-03-03T07:44:35;102091.47;;;4.54;81.88
62926;BME280;55732;52.248;-0.844;2023-03-03T07:47:29;102097.99;;;4.59;81.77
62926;BME280;55732;52.248;-0.844;2023-03-03T07:50:17;102099.80;;;4.64;81.80
62926;BME280;55732;52.248;-0.844;2023-03-03T07:52:55;102103.64;;;4.68;81.62
62926;BME280;55732;52.248;-0.844;2023-03-03T07:55:33;102109.04;;;4.71;81.68
62926;BME280;55732;52.248;-0.844;2023-03-03T08:03:15;102106.70;;;4.92;81.00
62926;BME280;55732;52.248;-0.844;2023-03-03T08:05:43;102109.89;;;4.98;80.87
62926;BME280;55732;52.248;-0.844;2023-03-03T08:08:18;102109.61;;;5.02;80.57
62926;BME280;55732;52.248;-0.844;2023-03-03T08:10:52;102114.48;;;5.18;80.62
62926;BME280;55732;52.248;-0.844;2023-03-03T08:16:01;102116.26;;;5.38;79.63
62926;BME280;55732;52.248;-0.844;2023-03-03T08:18:31;102117.44;;;5.52;79.07
62926;BME280;55732;52.248;-0.844;2023-03-03T08:21:00;102120.83;;;5.70;78.97
62926;BME280;55732;52.248;-0.844;2023-03-03T08:23:27;102126.34;;;5.88;78.70
62926;BME280;55732;52.248;-0.844;2023-03-03T08:25:53;102119.98;;;6.03;78.47
62926;BME280;55732;52.248;-0.844;2023-03-03T08:28:20;102122.98;;;6.16;78.02
62926;BME280;55732;52.248;-0.844;2023-03-03T08:30:46;102125.06;;;6.24;77.61
62926;BME280;55732;52.248;-0.844;2023-03-03T08:33:13;102127.95;;;6.27;76.94
62926;BME280;55732;52.248;-0.844;2023-03-03T08:35:39;102127.48;;;6.24;77.16
62926;BME280;55732;52.248;-0.844;2023-03-03T08:38:06;102133.83;;;6.12;77.34
62926;BME280;55732;52.248;-0.844;2023-03-03T08:40:32;102136.46;;;6.04;77.13
62926;BME280;55732;52.248;-0.844;2023-03-03T08:42:59;102137.99;;;5.95;77.08
62926;BME280;55732;52.248;-0.844;2023-03-03T08:45:26;102139.89;;;5.90;77.37
62926;BME280;55732;52.248;-0.844;2023-03-03T08:47:52;102141.39;;;5.81;77.42
62926;BME280;55732;52.248;-0.844;2023-03-03T08:50:18;102140.95;;;5.63;77.45
62926;BME280;55732;52.248;-0.844;2023-03-03T08:52:44;102141.38;;;5.49;77.82
62926;BME280;55732;52.248;-0.844;2023-03-03T08:55:11;102144.50;;;5.40;77.85
62926;BME280;55732;52.248;-0.844;2023-03-03T08:57:36;102146.41;;;5.32;78.18
62926;BME280;55732;52.248;-0.844;2023-03-03T09:00:05;102143.44;;;5.32;78.22
62926;BME280;55732;52.248;-0.844;2023-03-03T09:02:31;102145.14;;;5.39;78.09
62926;BME280;55732;52.248;-0.844;2023-03-03T09:04:57;102142.66;;;5.42;77.95
62926;BME280;55732;52.248;-0.844;2023-03-03T09:07:22;102141.67;;;5.40;77.99
62926;BME280;55732;52.248;-0.844;2023-03-03T09:09:48;102143.95;;;5.52;78.04
62926;BME280;55732;52.248;-0.844;2023-03-03T09:12:28;102144.46;;;5.63;77.88
62926;BME280;55732;52.248;-0.844;2023-03-03T09:15:41;102148.43;;;5.78;77.80
62926;BME280;55732;52.248;-0.844;2023-03-03T09:17:41;102148.50;;;6.08;77.10
62926;BME280;55732;52.248;-0.844;2023-03-03T09:22:58;102138.41;;;6.55;76.18
62926;BME280;55732;52.248;-0.844;2023-03-03T09:25:33;102139.92;;;6.63;76.20
62926;BME280;55732;52.248;-0.844;2023-03-03T09:28:00;102137.89;;;6.56;76.17
62926;BME280;55732;52.248;-0.844;2023-03-03T09:30:37;102141.48;;;6.49;76.29
62926;BME280;55732;52.248;-0.844;2023-03-03T09:33:24;102143.16;;;6.52;76.12
62926;BME280;55732;52.248;-0.844;2023-03-03T09:38:41;102145.10;;;6.57;75.63
62926;BME280;55732;52.248;-0.844;2023-03-03T09:44:21;102142.66;;;6.44;75.36
62926;BME280;55732;52.248;-0.844;2023-03-03T10:09:20;102161.15;;;6.77;74.03
62926;BME280;55732;52.248;-0.844;2023-03-03T10:22:51;102155.08;;;7.01;72.72
62926;BME280;55732;52.248;-0.844;2023-03-03T10:25:40;102158.47;;;7.03;73.21
62926;BME280;55732;52.248;-0.844;2023-03-03T10:57:37;102169.55;;;7.08;72.26
62926;BME280;55732;52.248;-0.844;2023-03-03T11:00:28;102168.93;;;6.93;71.93
62926;BME280;55732;52.248;-0.844;2023-03-03T11:03:32;102172.71;;;6.77;71.66
62926;BME280;55732;52.248;-0.844;2023-03-03T11:09:14;102178.25;;;6.67;72.01
62926;BME280;55732;52.248;-0.844;2023-03-03T11:17:35;102178.80;;;6.68;71.90
62926;BME280;55732;52.248;-0.844;2023-03-03T11:20:20;102184.02;;;6.67;72.24
62926;BME280;55732;52.248;-0.844;2023-03-03T11:23:29;102182.12;;;6.72;72.27
62926;BME280;55732;52.248;-0.844;2023-03-03T11:31:48;102189.64;;;6.89;71.61
62926;BME280;55732;52.248;-0.844;2023-03-03T11:34:27;102190.67;;;6.89;71.36
62926;BME280;55732;52.248;-0.844;2023-03-03T11:37:04;102186.70;;;6.90;71.47
62926;BME280;55732;52.248;-0.844;2023-03-03T11:39:33;102186.23;;;6.96;71.49
62926;BME280;55732;52.248;-0.844;2023-03-03T11:42:34;102194.52;;;7.02;71.15
62926;BME280;55732;52.248;-0.844;2023-03-03T11:45:13;102188.99;;;7.04;70.87
62926;BME280;55732;52.248;-0.844;2023-03-03T11:50:42;102188.02;;;7.05;71.08
62926;BME280;55732;52.248;-0.844;2023-03-03T11:53:56;102190.79;;;7.01;71.03
62926;BME280;55732;52.248;-0.844;2023-03-03T11:56:31;102188.49;;;6.96;70.64
62926;BME280;55732;52.248;-0.844;2023-03-03T11:59:26;102189.57;;;6.92;70.32
62926;BME280;55732;52.248;-0.844;2023-03-03T12:04:50;102183.58;;;7.04;70.19
62926;BME280;55732;52.248;-0.844;2023-03-03T12:07:40;102181.58;;;7.12;69.77
62926;BME280;55732;52.248;-0.844;2023-03-03T12:10:34;102184.02;;;7.11;69.97
62926;BME280;55732;52.248;-0.844;2023-03-03T12:16:17;102181.08;;;7.07;69.78
62926;BME280;55732;52.248;-0.844;2023-03-03T12:24:45;102184.06;;;6.99;68.57
62926;BME280;55732;52.248;-0.844;2023-03-03T12:27:22;102181.96;;;6.94;68.78
62926;BME280;55732;52.248;-0.844;2023-03-03T12:30:03;102176.43;;;6.96;68.62
62926;BME280;55732;52.248;-0.844;2023-03-03T12:35:19;102176.30;;;7.11;68.56
62926;BME280;55732;52.248;-0.844;2023-03-03T12:38:09;102174.23;;;7.12;68.54
62926;BME280;55732;52.248;-0.844;2023-03-03T12:40:45;102173.76;;;7.08;68.50
62926;BME280;55732;52.248;-0.844;2023-03-03T12:46:21;102167.95;;;6.99;68.69
62926;BME280;55732;52.248;-0.844;2023-03-03T12:48:49;102162.81;;;6.93;68.74
62926;BME280;55732;52.248;-0.844;2023-03-03T12:54:29;102172.55;;;6.78;69.50
62926;BME280;55732;52.248;-0.844;2023-03-03T12:57:01;102167.77;;;6.68;69.74
62926;BME280;55732;52.248;-0.844;2023-03-03T13:03:01;102165.02;;;6.69;69.80
62926;BME280;55732;52.248;-0.844;2023-03-03T13:10:44;102156.71;;;6.98;69.34
62926;BME280;55732;52.248;-0.844;2023-03-03T13:13:29;102154.41;;;7.06;69.14
62926;BME280;55732;52.248;-0.844;2023-03-03T13:16:03;102148.66;;;7.07;68.25
62926;BME280;55732;52.248;-0.844;2023-03-03T13:19:08;102151.78;;;7.02;67.84
62926;BME280;55732;52.248;-0.844;2023-03-03T13:21:49;102145.24;;;6.91;67.30
62926;BME280;55732;52.248;-0.844;2023-03-03T13:27:14;102149.83;;;6.74;67.69
62926;BME280;55732;52.248;-0.844;2023-03-03T13:30:22;102153.21;;;6.67;67.69
62926;BME280;55732;52.248;-0.844;2023-03-03T13:35:32;102147.58;;;6.57;68.27
62926;BME280;55732;52.248;-0.844;2023-03-03T13:38:04;102146.77;;;6.55;68.59
62926;BME280;55732;52.248;-0.844;2023-03-03T13:40:49;102145.62;;;6.52;68.85
62926;BME280;55732;52.248;-0.844;2023-03-03T13:43:22;102141.86;;;6.50;69.00
62926;BME280;55732;52.248;-0.844;2023-03-03T13:51:31;102131.60;;;6.78;68.96
62926;BME280;55732;52.248;-0.844;2023-03-03T14:05:56;102128.67;;;6.84;68.96
62926;BME280;55732;52.248;-0.844;2023-03-03T14:11:11;102135.12;;;6.78;69.79
62926;BME280;55732;52.248;-0.844;2023-03-03T14:14:03;102135.31;;;6.75;70.20
62926;BME280;55732;52.248;-0.844;2023-03-03T14:19:17;102138.34;;;6.67;70.86
62926;BME280;55732;52.248;-0.844;2023-03-03T14:21:52;102131.79;;;6.65;71.54
62926;BME280;55732;52.248;-0.844;2023-03-03T14:24:24;102131.41;;;6.73;71.80
62926;BME280;55732;52.248;-0.844;2023-03-03T14:26:58;102131.61;;;6.83;72.02
62926;BME280;55732;52.248;-0.844;2023-03-03T14:31:57;102125.93;;;6.90;71.57
62926;BME280;55732;52.248;-0.844;2023-03-03T14:34:39;102129.34;;;6.92;71.83
62926;BME280;55732;52.248;-0.844;2023-03-03T14:37:22;102127.98;;;6.89;71.67
62926;BME280;55732;52.248;-0.844;2023-03-03T14:40:19;102130.61;;;6.80;71.72
62926;BME280;55732;52.248;-0.844;2023-03-03T14:45:39;102126.95;;;6.67;72.28
62926;BME280;55732;52.248;-0.844;2023-03-03T14:48:25;102128.92;;;6.64;72.44
62926;BME280;55732;52.248;-0.844;2023-03-03T14:50:59;102130.88;;;6.55;72.61
62926;BME280;55732;52.248;-0.844;2023-03-03T14:53:43;102129.11;;;6.50;72.80
62926;BME280;55732;52.248;-0.844;2023-03-03T14:56:32;102132.57;;;6.50;72.75
62926;BME280;55732;52.248;-0.844;2023-03-03T14:59:20;102132.45;;;6.46;72.45
62926;BME280;55732;52.248;-0.844;2023-03-03T15:01:56;102132.60;;;6.41;72.63
62926;BME280;55732;52.248;-0.844;2023-03-03T15:04:27;102131.45;;;6.39;72.89
62926;BME280;55732;52.248;-0.844;2023-03-03T15:06:54;102126.41;;;6.40;72.82
62926;BME280;55732;52.248;-0.844;2023-03-03T15:12:00;102127.98;;;6.44;72.80
62926;BME280;55732;52.248;-0.844;2023-03-03T15:14:34;102121.96;;;6.46;72.38
62926;BME280;55732;52.248;-0.844;2023-03-03T15:23:17;102105.47;;;6.59;71.08
62926;BME280;55732;52.248;-0.844;2023-03-03T15:36:44;102090.67;;;6.83;69.21
62926;BME280;55732;52.248;-0.844;2023-03-03T15:39:21;102088.75;;;6.83;69.05
62926;BME280;55732;52.248;-0.844;2023-03-03T15:52:45;102071.13;;;6.99;68.25
62926;BME280;55732;52.248;-0.844;2023-03-03T16:00:43;102067.56;;;7.16;68.37
62926;BME280;55732;52.248;-0.844;2023-03-03T16:03:20;102069.70;;;7.17;67.91
62926;BME280;55732;52.248;-0.844;2023-03-03T16:06:02;102066.45;;;7.15;67.83
62926;BME280;55732;52.248;-0.844;2023-03-03T16:11:25;102066.51;;;7.11;67.96
62926;BME280;55732;52.248;-0.844;2023-03-03T16:16:50;102063.90;;;7.07;67.98
62926;BME280;55732;52.248;-0.844;2023-03-03T16:19:40;102062.52;;;7.03;67.87
62926;BME280;55732;52.248;-0.844;2023-03-03T16:23:03;102059.67;;;7.02;68.01
62926;BME280;55732;52.248;-0.844;2023-03-03T16:26:01;102059.70;;;7.02;68.09
62926;BME280;55732;52.248;-0.844;2023-03-03T16:31:09;102062.85;;;6.98;67.59
62926;BME280;55732;52.248;-0.844;2023-03-03T16:36:58;102069.29;;;6.87;67.74
62926;BME280;55732;52.248;-0.844;2023-03-03T16:44:26;102074.81;;;6.76;67.76
62926;BME280;55732;52.248;-0.844;2023-03-03T16:47:06;102069.70;;;6.70;68.06
62926;BME280;55732;52.248;-0.844;2023-03-03T16:49:44;102071.59;;;6.65;68.16
62926;BME280;55732;52.248;-0.844;2023-03-03T16:52:17;102073.05;;;6.63;68.37
62926;BME280;55732;52.248;-0.844;2023-03-03T16:54:56;102070.30;;;6.59;68.29
62926;BME280;55732;52.248;-0.844;2023-03-03T17:00:10;102073.74;;;6.58;68.72
62926;BME280;55732;52.248;-0.844;2023-03-03T17:10:41;102082.61;;;6.43;68.41
62926;BME280;55732;52.248;-0.844;2023-03-03T17:15:51;102093.76;;;6.37;68.69
62926;BME280;55732;52.248;-0.844;2023-03-03T17:18:39;102095.78;;;6.35;68.76
62926;BME280;55732;52.248;-0.844;2023-03-03T17:21:38;102097.74;;;6.32;68.60
62926;BME280;55732;52.248;-0.844;2023-03-03T17:24:14;102098.42;;;6.27;68.55
62926;BME280;55732;52.248;-0.844;2023-03-03T17:26:56;102098.77;;;6.22;68.38
62926;BME280;55732;52.248;-0.844;2023-03-03T17:45:21;102110.91;;;5.91;68.28
62926;BME280;55732;52.248;-0.844;2023-03-03T18:09:24;102130.81;;;5.83;67.76